sensor_id;sensor_type;location;lat;lon;timestamp;temperature;humidity
21318;DHT22;10818;50.830;6.524;2024-02-23T00:01:39;7.10;99.90
21318;DHT22;10818;50.830;6.524;2024-02-23T00:06:39;7.10;99.90
21318;DHT22;10818;50.830;6.524;2024-02-23T00:11:41;7.00;99.90
21318;DHT22;10818;50.830;6.524;2024-02-23T00:16:44;7.10;99.90
21318;DHT22;10818;50.830;6.524;2024-02-23T00:21:45;7.10;99.90
21318;DHT22;10818;50.830;6.524;2024-02-23T00:26:49;6.90;99.90
21318;DHT22;10818;50.830;6.524;2024-02-23T00:31:51;6.70;99.90
21318;DHT22;10818;50.830;6.524;2024-02-23T00:36:52;6.70;99.90
21318;DHT22;10818;50.830;6.524;2024-02-23T00:41:53;6.50;99.90
21318;DHT22;10818;50.830;6.524;2024-02-23T00:46:53;6.40;99.90
21318;DHT22;10818;50.830;6.524;2024-02-23T00:51:54;6.20;99.90
21318;DHT22;10818;50.830;6.524;2024-02-23T00:56:55;6.20;99.90
21318;DHT22;10818;50.830;6.524;2024-02-23T01:01:56;6.10;99.90
21318;DHT22;10818;50.830;6.524;2024-02-23T01:06:57;6.20;99.90
21318;DHT22;10818;50.830;6.524;2024-02-23T01:11:57;6.10;99.90
21318;DHT22;10818;50.830;6.524;2024-02-23T01:16:58;6.30;99.90
21318;DHT22;10818;50.830;6.524;2024-02-23T01:21:58;6.20;99.90
21318;DHT22;10818;50.830;6.524;2024-02-23T01:27:02;6.00;99.90
21318;DHT22;10818;50.830;6.524;2024-02-23T01:32:02;6.00;99.90
21318;DHT22;10818;50.830;6.524;2024-02-23T01:37:03;5.80;99.90
21318;DHT22;10818;50.830;6.524;2024-02-23T01:42:03;5.80;99.90
21318;DHT22;10818;50.830;6.524;2024-02-23T01:47:04;5.80;99.90
21318;DHT22;10818;50.830;6.524;2024-02-23T01:52:05;5.70;99.90
21318;DHT22;10818;50.830;6.524;2024-02-23T01:57:05;5.60;99.90
21318;DHT22;10818;50.830;6.524;2024-02-23T02:02:06;5.60;99.90
21318;DHT22;10818;50.830;6.524;2024-02-23T02:07:07;5.70;99.90
21318;DHT22;10818;50.830;6.524;2024-02-23T02:12:07;5.70;99.90
21318;DHT22;10818;50.830;6.524;2024-02-23T02:17:08;5.70;99.90
21318;DHT22;10818;50.830;6.524;2024-02-23T02:22:08;5.70;99.90
21318;DHT22;10818;50.830;6.524;2024-02-23T02:27:09;5.70;99.90
21318;DHT22;10818;50.830;6.524;2024-02-23T02:32:09;5.70;99.90
21318;DHT22;10818;50.830;6.524;2024-02-23T02:37:10;5.80;99.90
21318;DHT22;10818;50.830;6.524;2024-02-23T02:42:10;5.80;99.90
21318;DHT22;10818;50.830;6.524;2024-02-23T02:47:11;5.80;99.90
21318;DHT22;10818;50.830;6.524;2024-02-23T02:52:11;5.80;99.90
21318;DHT22;10818;50.830;6.524;2024-02-23T02:57:13;5.70;99.90
21318;DHT22;10818;50.830;6.524;2024-02-23T03:02:14;5.70;99.90
21318;DHT22;10818;50.830;6.524;2024-02-23T03:07:14;5.80;99.90
21318;DHT22;10818;50.830;6.524;2024-02-23T03:12:15;5.70;99.90
21318;DHT22;10818;50.830;6.524;2024-02-23T03:17:15;5.80;99.90
21318;DHT22;10818;50.830;6.524;2024-02-23T03:22:16;5.80;99.90
21318;DHT22;10818;50.830;6.524;2024-02-23T03:27:16;5.70;99.90
21318;DHT22;10818;50.830;6.524;2024-02-23T03:32:17;5.80;99.90
21318;DHT22;10818;50.830;6.524;2024-02-23T03:37:17;5.80;99.90
21318;DHT22;10818;50.830;6.524;2024-02-23T03:42:18;5.80;99.90
21318;DHT22;10818;50.830;6.524;2024-02-23T03:47:18;5.80;99.90
21318;DHT22;10818;50.830;6.524;2024-02-23T03:52:19;5.70;99.90
21318;DHT22;10818;50.830;6.524;2024-02-23T03:57:19;5.80;99.90
21318;DHT22;10818;50.830;6.524;2024-02-23T04:02:19;5.70;99.90
21318;DHT22;10818;50.830;6.524;2024-02-23T04:07:20;5.80;99.90
21318;DHT22;10818;50.830;6.524;2024-02-23T04:12:21;5.80;99.90
21318;DHT22;10818;50.830;6.524;2024-02-23T04:17:22;5.90;99.90
21318;DHT22;10818;50.830;6.524;2024-02-23T04:22:22;5.90;99.90
21318;DHT22;10818;50.830;6.524;2024-02-23T04:27:23;5.80;99.90
21318;DHT22;10818;50.830;6.524;2024-02-23T04:32:23;5.80;99.90
21318;DHT22;10818;50.830;6.524;2024-02-23T04:37:23;6.00;99.90
21318;DHT22;10818;50.830;6.524;2024-02-23T04:42:24;6.00;99.90
21318;DHT22;10818;50.830;6.524;2024-02-23T04:47:24;6.00;99.90
21318;DHT22;10818;50.830;6.524;2024-02-23T04:52:25;6.00;99.90
21318;DHT22;10818;50.830;6.524;2024-02-23T04:57:25;6.00;99.90
21318;DHT22;10818;50.830;6.524;2024-02-23T05:02:26;5.80;99.90
21318;DHT22;10818;50.830;6.524;2024-02-23T05:07:30;5.90;99.90
21318;DHT22;10818;50.830;6.524;2024-02-23T05:12:30;5.70;99.90
21318;DHT22;10818;50.830;6.524;2024-02-23T05:17:31;5.70;99.90
21318;DHT22;10818;50.830;6.524;2024-02-23T05:22:31;5.80;99.90
21318;DHT22;10818;50.830;6.524;2024-02-23T05:27:32;5.60;99.90
21318;DHT22;10818;50.830;6.524;2024-02-23T05:32:32;5.80;99.90
21318;DHT22;10818;50.830;6.524;2024-02-23T05:37:32;5.90;99.90
21318;DHT22;10818;50.830;6.524;2024-02-23T05:42:33;5.90;99.90
21318;DHT22;10818;50.830;6.524;2024-02-23T05:47:33;5.80;99.90
21318;DHT22;10818;50.830;6.524;2024-02-23T05:52:34;5.80;99.90
21318;DHT22;10818;50.830;6.524;2024-02-23T05:57:34;5.60;99.90
21318;DHT22;10818;50.830;6.524;2024-02-23T06:02:35;5.60;99.90
21318;DHT22;10818;50.830;6.524;2024-02-23T06:07:35;5.60;99.90
21318;DHT22;10818;50.830;6.524;2024-02-23T06:12:37;5.60;99.90
21318;DHT22;10818;50.830;6.524;2024-02-23T06:17:38;5.60;99.90
21318;DHT22;10818;50.830;6.524;2024-02-23T06:22:40;5.50;99.90
21318;DHT22;10818;50.830;6.524;2024-02-23T06:27:41;5.50;99.90
21318;DHT22;10818;50.830;6.524;2024-02-23T06:32:41;5.50;99.90
21318;DHT22;10818;50.830;6.524;2024-02-23T06:37:42;5.60;99.90
21318;DHT22;10818;50.830;6.524;2024-02-23T06:42:43;5.60;99.90
21318;DHT22;10818;50.830;6.524;2024-02-23T06:47:44;5.70;99.90
21318;DHT22;10818;50.830;6.524;2024-02-23T06:52:44;5.80;99.90
21318;DHT22;10818;50.830;6.524;2024-02-23T06:57:45;5.80;99.90
21318;DHT22;10818;50.830;6.524;2024-02-23T07:02:47;5.80;99.90
21318;DHT22;10818;50.830;6.524;2024-02-23T07:07:47;5.90;99.90
21318;DHT22;10818;50.830;6.524;2024-02-23T07:12:48;5.90;99.90
21318;DHT22;10818;50.830;6.524;2024-02-23T07:17:48;6.10;99.90
21318;DHT22;10818;50.830;6.524;2024-02-23T07:22:49;6.10;99.90
21318;DHT22;10818;50.830;6.524;2024-02-23T07:27:49;6.40;99.90
21318;DHT22;10818;50.830;6.524;2024-02-23T07:32:50;6.40;99.90
21318;DHT22;10818;50.830;6.524;2024-02-23T07:37:50;6.60;99.90
21318;DHT22;10818;50.830;6.524;2024-02-23T07:42:51;6.70;99.90
21318;DHT22;10818;50.830;6.524;2024-02-23T07:47:51;6.80;99.90
21318;DHT22;10818;50.830;6.524;2024-02-23T07:52:52;9.20;99.90
21318;DHT22;10818;50.830;6.524;2024-02-23T07:57:52;10.60;99.90
21318;DHT22;10818;50.830;6.524;2024-02-23T08:02:53;9.40;99.90
21318;DHT22;10818;50.830;6.524;2024-02-23T08:07:56;8.80;99.90
21318;DHT22;10818;50.830;6.524;2024-02-23T08:12:57;8.50;99.90
21318;DHT22;10818;50.830;6.524;2024-02-23T08:17:57;9.10;99.90
21318;DHT22;10818;50.830;6.524;2024-02-23T08:22:58;12.90;99.90
21318;DHT22;10818;50.830;6.524;2024-02-23T08:27:58;14.20;99.90
21318;DHT22;10818;50.830;6.524;2024-02-23T08:32:59;12.70;99.90
21318;DHT22;10818;50.830;6.524;2024-02-23T08:38:00;13.60;99.90
21318;DHT22;10818;50.830;6.524;2024-02-23T08:43:00;16.00;99.90
21318;DHT22;10818;50.830;6.524;2024-02-23T08:48:01;17.30;99.90
21318;DHT22;10818;50.830;6.524;2024-02-23T08:53:01;16.80;99.90
21318;DHT22;10818;50.830;6.524;2024-02-23T08:58:02;14.20;99.90
21318;DHT22;10818;50.830;6.524;2024-02-23T09:03:03;12.40;99.90
21318;DHT22;10818;50.830;6.524;2024-02-23T09:08:04;10.60;99.90
21318;DHT22;10818;50.830;6.524;2024-02-23T09:13:05;11.10;99.90
21318;DHT22;10818;50.830;6.524;2024-02-23T09:18:05;11.30;99.90
21318;DHT22;10818;50.830;6.524;2024-02-23T09:23:06;11.50;99.90
21318;DHT22;10818;50.830;6.524;2024-02-23T09:28:06;10.60;99.90
21318;DHT22;10818;50.830;6.524;2024-02-23T09:33:07;10.90;99.90
21318;DHT22;10818;50.830;6.524;2024-02-23T09:38:08;10.80;99.90
21318;DHT22;10818;50.830;6.524;2024-02-23T09:43:09;10.80;99.90
21318;DHT22;10818;50.830;6.524;2024-02-23T09:48:11;10.60;99.90
21318;DHT22;10818;50.830;6.524;2024-02-23T09:53:13;10.20;99.90
21318;DHT22;10818;50.830;6.524;2024-02-23T09:58:14;10.60;99.90
21318;DHT22;10818;50.830;6.524;2024-02-23T10:03:17;11.10;99.90
21318;DHT22;10818;50.830;6.524;2024-02-23T10:08:17;11.50;99.90
21318;DHT22;10818;50.830;6.524;2024-02-23T10:13:27;11.20;99.90
21318;DHT22;10818;50.830;6.524;2024-02-23T10:18:29;11.10;99.90
21318;DHT22;10818;50.830;6.524;2024-02-23T10:23:29;10.70;99.90
21318;DHT22;10818;50.830;6.524;2024-02-23T10:28:30;10.50;99.90
21318;DHT22;10818;50.830;6.524;2024-02-23T10:33:31;11.20;99.90
21318;DHT22;10818;50.830;6.524;2024-02-23T10:38:32;11.40;99.90
21318;DHT22;10818;50.830;6.524;2024-02-23T10:43:33;11.30;99.90
21318;DHT22;10818;50.830;6.524;2024-02-23T10:48:36;10.50;99.90
21318;DHT22;10818;50.830;6.524;2024-02-23T10:53:37;10.80;99.90
21318;DHT22;10818;50.830;6.524;2024-02-23T10:58:39;10.60;99.90
21318;DHT22;10818;50.830;6.524;2024-02-23T11:03:40;10.70;99.90
21318;DHT22;10818;50.830;6.524;2024-02-23T11:08:41;10.70;99.90
21318;DHT22;10818;50.830;6.524;2024-02-23T11:13:43;10.70;99.90
21318;DHT22;10818;50.830;6.524;2024-02-23T11:18:44;10.90;99.90
21318;DHT22;10818;50.830;6.524;2024-02-23T11:23:48;10.70;99.90
21318;DHT22;10818;50.830;6.524;2024-02-23T11:28:51;10.90;99.90
21318;DHT22;10818;50.830;6.524;2024-02-23T11:33:54;10.90;99.90
21318;DHT22;10818;50.830;6.524;2024-02-23T11:38:56;11.20;99.90
21318;DHT22;10818;50.830;6.524;2024-02-23T11:43:57;10.80;99.90
21318;DHT22;10818;50.830;6.524;2024-02-23T11:48:58;10.40;99.90
21318;DHT22;10818;50.830;6.524;2024-02-23T11:54:00;10.20;99.90
21318;DHT22;10818;50.830;6.524;2024-02-23T11:59:00;10.10;99.90
21318;DHT22;10818;50.830;6.524;2024-02-23T12:04:01;10.40;99.90
21318;DHT22;10818;50.830;6.524;2024-02-23T12:09:01;10.50;99.90
21318;DHT22;10818;50.830;6.524;2024-02-23T12:14:02;10.60;99.90
21318;DHT22;10818;50.830;6.524;2024-02-23T12:19:08;10.70;99.90
21318;DHT22;10818;50.830;6.524;2024-02-23T12:24:08;10.90;99.90
21318;DHT22;10818;50.830;6.524;2024-02-23T12:29:09;11.20;99.90
21318;DHT22;10818;50.830;6.524;2024-02-23T12:34:11;11.30;99.90
21318;DHT22;10818;50.830;6.524;2024-02-23T12:39:12;10.90;99.90
21318;DHT22;10818;50.830;6.524;2024-02-23T12:44:12;10.80;99.90
21318;DHT22;10818;50.830;6.524;2024-02-23T12:49:13;11.00;99.90
21318;DHT22;10818;50.830;6.524;2024-02-23T12:54:13;11.10;99.90
21318;DHT22;10818;50.830;6.524;2024-02-23T12:59:14;11.10;99.90
21318;DHT22;10818;50.830;6.524;2024-02-23T13:04:14;11.30;99.90
21318;DHT22;10818;50.830;6.524;2024-02-23T13:09:14;11.30;99.90
21318;DHT22;10818;50.830;6.524;2024-02-23T13:14:15;11.30;99.90
21318;DHT22;10818;50.830;6.524;2024-02-23T13:19:16;11.30;99.90
21318;DHT22;10818;50.830;6.524;2024-02-23T13:24:16;11.40;99.90
21318;DHT22;10818;50.830;6.524;2024-02-23T13:29:17;11.60;99.90
21318;DHT22;10818;50.830;6.524;2024-02-23T13:34:18;11.50;99.90
21318;DHT22;10818;50.830;6.524;2024-02-23T13:39:19;11.70;99.90
21318;DHT22;10818;50.830;6.524;2024-02-23T13:44:19;11.50;99.90
21318;DHT22;10818;50.830;6.524;2024-02-23T13:49:20;11.70;99.90
21318;DHT22;10818;50.830;6.524;2024-02-23T13:54:20;11.20;99.90
21318;DHT22;10818;50.830;6.524;2024-02-23T13:59:21;11.40;99.90
21318;DHT22;10818;50.830;6.524;2024-02-23T14:04:21;11.30;99.90
21318;DHT22;10818;50.830;6.524;2024-02-23T14:09:22;11.30;99.90
21318;DHT22;10818;50.830;6.524;2024-02-23T14:14:22;11.10;99.90
21318;DHT22;10818;50.830;6.524;2024-02-23T14:19:23;11.20;99.90
21318;DHT22;10818;50.830;6.524;2024-02-23T14:24:25;11.50;99.90
21318;DHT22;10818;50.830;6.524;2024-02-23T14:29:25;11.60;99.90
21318;DHT22;10818;50.830;6.524;2024-02-23T14:34:26;11.30;99.90
21318;DHT22;10818;50.830;6.524;2024-02-23T14:39:26;11.30;99.90
21318;DHT22;10818;50.830;6.524;2024-02-23T14:44:27;11.10;99.90
21318;DHT22;10818;50.830;6.524;2024-02-23T14:49:27;11.20;99.90
21318;DHT22;10818;50.830;6.524;2024-02-23T14:54:28;11.30;99.90
21318;DHT22;10818;50.830;6.524;2024-02-23T14:59:29;11.30;99.90
21318;DHT22;10818;50.830;6.524;2024-02-23T15:04:30;11.00;99.90
21318;DHT22;10818;50.830;6.524;2024-02-23T15:09:31;10.90;99.90
21318;DHT22;10818;50.830;6.524;2024-02-23T15:14:31;11.00;99.90
21318;DHT22;10818;50.830;6.524;2024-02-23T15:19:32;11.10;99.90
21318;DHT22;10818;50.830;6.524;2024-02-23T15:24:32;10.90;99.90
21318;DHT22;10818;50.830;6.524;2024-02-23T15:29:32;10.70;99.90
21318;DHT22;10818;50.830;6.524;2024-02-23T15:34:33;10.50;99.90
21318;DHT22;10818;50.830;6.524;2024-02-23T15:39:33;10.20;99.90
21318;DHT22;10818;50.830;6.524;2024-02-23T15:44:34;10.10;99.90
21318;DHT22;10818;50.830;6.524;2024-02-23T15:49:34;10.00;99.90
21318;DHT22;10818;50.830;6.524;2024-02-23T15:54:35;9.90;99.90
21318;DHT22;10818;50.830;6.524;2024-02-23T15:59:35;10.20;99.90
21318;DHT22;10818;50.830;6.524;2024-02-23T16:04:36;9.70;99.90
21318;DHT22;10818;50.830;6.524;2024-02-23T16:09:36;9.70;99.90
21318;DHT22;10818;50.830;6.524;2024-02-23T16:14:36;9.60;99.90
21318;DHT22;10818;50.830;6.524;2024-02-23T16:19:37;9.60;99.90
21318;DHT22;10818;50.830;6.524;2024-02-23T16:24:37;9.50;99.90
21318;DHT22;10818;50.830;6.524;2024-02-23T16:29:38;9.60;99.90
21318;DHT22;10818;50.830;6.524;2024-02-23T16:34:38;9.30;99.90
21318;DHT22;10818;50.830;6.524;2024-02-23T16:39:39;9.50;99.90
21318;DHT22;10818;50.830;6.524;2024-02-23T16:44:39;9.50;99.90
21318;DHT22;10818;50.830;6.524;2024-02-23T16:49:41;9.30;99.90
21318;DHT22;10818;50.830;6.524;2024-02-23T16:54:41;9.00;99.90
21318;DHT22;10818;50.830;6.524;2024-02-23T16:59:42;8.60;99.90
21318;DHT22;10818;50.830;6.524;2024-02-23T17:04:42;8.40;99.90
21318;DHT22;10818;50.830;6.524;2024-02-23T17:09:42;8.20;99.90
21318;DHT22;10818;50.830;6.524;2024-02-23T17:14:49;8.00;99.90
21318;DHT22;10818;50.830;6.524;2024-02-23T17:19:49;8.00;99.90
21318;DHT22;10818;50.830;6.524;2024-02-23T17:24:50;7.80;99.90
21318;DHT22;10818;50.830;6.524;2024-02-23T17:29:51;7.80;99.90
21318;DHT22;10818;50.830;6.524;2024-02-23T17:34:51;7.60;99.90
21318;DHT22;10818;50.830;6.524;2024-02-23T17:39:53;7.50;99.90
21318;DHT22;10818;50.830;6.524;2024-02-23T17:44:54;7.60;99.90
21318;DHT22;10818;50.830;6.524;2024-02-23T17:49:54;7.50;99.90
21318;DHT22;10818;50.830;6.524;2024-02-23T17:54:55;7.70;99.90
21318;DHT22;10818;50.830;6.524;2024-02-23T17:59:56;7.70;99.90
21318;DHT22;10818;50.830;6.524;2024-02-23T18:04:56;7.70;99.90
21318;DHT22;10818;50.830;6.524;2024-02-23T18:09:57;7.80;99.90
21318;DHT22;10818;50.830;6.524;2024-02-23T18:14:57;7.90;99.90
21318;DHT22;10818;50.830;6.524;2024-02-23T18:19:58;7.90;99.90
21318;DHT22;10818;50.830;6.524;2024-02-23T18:24:58;7.90;99.90
21318;DHT22;10818;50.830;6.524;2024-02-23T18:29:59;8.00;99.90
21318;DHT22;10818;50.830;6.524;2024-02-23T18:34:59;8.00;99.90
21318;DHT22;10818;50.830;6.524;2024-02-23T18:39:59;8.00;99.90
21318;DHT22;10818;50.830;6.524;2024-02-23T18:45:00;8.00;99.90
21318;DHT22;10818;50.830;6.524;2024-02-23T18:50:03;7.90;99.90
21318;DHT22;10818;50.830;6.524;2024-02-23T18:55:04;7.90;99.90
21318;DHT22;10818;50.830;6.524;2024-02-23T19:00:05;7.60;99.90
21318;DHT22;10818;50.830;6.524;2024-02-23T19:05:07;7.60;99.90
21318;DHT22;10818;50.830;6.524;2024-02-23T19:10:07;7.40;99.90
21318;DHT22;10818;50.830;6.524;2024-02-23T19:15:09;7.20;99.90
21318;DHT22;10818;50.830;6.524;2024-02-23T19:20:09;6.90;99.90
21318;DHT22;10818;50.830;6.524;2024-02-23T19:25:10;7.00;99.90
21318;DHT22;10818;50.830;6.524;2024-02-23T19:30:11;6.80;99.90
21318;DHT22;10818;50.830;6.524;2024-02-23T19:35:12;6.70;99.90
21318;DHT22;10818;50.830;6.524;2024-02-23T19:40:13;6.70;99.90
21318;DHT22;10818;50.830;6.524;2024-02-23T19:45:21;6.50;99.90
21318;DHT22;10818;50.830;6.524;2024-02-23T19:50:21;6.40;99.90
21318;DHT22;10818;50.830;6.524;2024-02-23T19:55:22;6.20;99.90
21318;DHT22;10818;50.830;6.524;2024-02-23T20:00:22;6.20;99.90
21318;DHT22;10818;50.830;6.524;2024-02-23T20:05:23;6.00;99.90
21318;DHT22;10818;50.830;6.524;2024-02-23T20:10:25;5.90;99.90
21318;DHT22;10818;50.830;6.524;2024-02-23T20:15:26;5.90;99.90
21318;DHT22;10818;50.830;6.524;2024-02-23T20:20:26;6.00;99.90
21318;DHT22;10818;50.830;6.524;2024-02-23T20:25:27;6.00;99.90
21318;DHT22;10818;50.830;6.524;2024-02-23T20:30:27;5.90;99.90
21318;DHT22;10818;50.830;6.524;2024-02-23T20:35:29;5.90;99.90
21318;DHT22;10818;50.830;6.524;2024-02-23T20:40:29;5.90;99.90
21318;DHT22;10818;50.830;6.524;2024-02-23T20:45:29;5.80;99.90
21318;DHT22;10818;50.830;6.524;2024-02-23T20:50:30;5.70;99.90
21318;DHT22;10818;50.830;6.524;2024-02-23T20:55:30;5.80;99.90
21318;DHT22;10818;50.830;6.524;2024-02-23T21:00:31;5.70;99.90
21318;DHT22;10818;50.830;6.524;2024-02-23T21:05:31;5.70;99.90
21318;DHT22;10818;50.830;6.524;2024-02-23T21:10:34;5.60;99.90
21318;DHT22;10818;50.830;6.524;2024-02-23T21:15:34;5.50;99.90
21318;DHT22;10818;50.830;6.524;2024-02-23T21:20:36;5.50;99.90
21318;DHT22;10818;50.830;6.524;2024-02-23T21:25:37;5.30;99.90
21318;DHT22;10818;50.830;6.524;2024-02-23T21:30:37;5.30;99.90
21318;DHT22;10818;50.830;6.524;2024-02-23T21:35:42;5.30;99.90
21318;DHT22;10818;50.830;6.524;2024-02-23T21:40:43;5.40;99.90
21318;DHT22;10818;50.830;6.524;2024-02-23T21:45:43;5.30;99.90
21318;DHT22;10818;50.830;6.524;2024-02-23T21:50:44;5.20;99.90
21318;DHT22;10818;50.830;6.524;2024-02-23T21:55:44;5.30;99.90
21318;DHT22;10818;50.830;6.524;2024-02-23T22:00:45;5.40;99.90
21318;DHT22;10818;50.830;6.524;2024-02-23T22:05:45;5.40;99.90
21318;DHT22;10818;50.830;6.524;2024-02-23T22:10:45;5.50;99.90
21318;DHT22;10818;50.830;6.524;2024-02-23T22:15:46;5.70;99.90
21318;DHT22;10818;50.830;6.524;2024-02-23T22:20:46;5.40;99.90
21318;DHT22;10818;50.830;6.524;2024-02-23T22:25:47;5.20;99.90
21318;DHT22;10818;50.830;6.524;2024-02-23T22:30:47;5.20;99.90
21318;DHT22;10818;50.830;6.524;2024-02-23T22:35:48;5.30;99.90
21318;DHT22;10818;50.830;6.524;2024-02-23T22:40:48;5.20;99.90
21318;DHT22;10818;50.830;6.524;2024-02-23T22:45:49;5.30;99.90
21318;DHT22;10818;50.830;6.524;2024-02-23T22:50:51;5.40;99.90
21318;DHT22;10818;50.830;6.524;2024-02-23T22:55:51;5.30;99.90
21318;DHT22;10818;50.830;6.524;2024-02-23T23:00:52;5.40;99.90
21318;DHT22;10818;50.830;6.524;2024-02-23T23:05:53;5.30;99.90
21318;DHT22;10818;50.830;6.524;2024-02-23T23:10:53;5.30;99.90
21318;DHT22;10818;50.830;6.524;2024-02-23T23:15:54;5.30;99.90
21318;DHT22;10818;50.830;6.524;2024-02-23T23:20:54;5.40;99.90
21318;DHT22;10818;50.830;6.524;2024-02-23T23:25:55;5.50;99.90
21318;DHT22;10818;50.830;6.524;2024-02-23T23:30:55;5.60;99.90
21318;DHT22;10818;50.830;6.524;2024-02-23T23:35:56;5.60;99.90
21318;DHT22;10818;50.830;6.524;2024-02-23T23:40:56;5.70;99.90
21318;DHT22;10818;50.830;6.524;2024-02-23T23:45:57;5.90;99.90
21318;DHT22;10818;50.830;6.524;2024-02-23T23:50:57;5.90;99.90
21318;DHT22;10818;50.830;6.524;2024-02-23T23:55:58;5.90;99.90
